Time,TemperatureF,DewpointF,PressureIn,WindDirection,WindDirectionDegrees,WindSpeedMPH,WindSpeedGustMPH,Humidity,HourlyPrecipIn,Conditions,Clouds,dailyrainin,SoftwareType,DateUTC
2013-08-16 00:01:00,52.5,47.5,29.56,West,270,0.0,0.0,83,0.00,,---,0.00,VWS V14.01,2013-08-16 04:01:00,
2013-08-16 00:02:00,52.5,47.5,29.56,West,270,0.0,0.0,83,0.00,,---,0.00,VWS V14.01,2013-08-16 04:02:00,
2013-08-16 00:05:00,52.3,47.3,29.56,West,270,0.0,0.0,83,0.00,,---,0.00,VWS V14.01,2013-08-16 04:05:00,
2013-08-16 00:06:00,52.3,47.7,29.56,West,270,1.3,1.3,84,0.00,,---,0.00,VWS V14.01,2013-08-16 04:06:00,
2013-08-16 00:12:00,52.2,47.5,29.56,West,270,0.0,0.0,84,0.00,,---,0.00,VWS V14.01,2013-08-16 04:12:00,
2013-08-16 00:17:00,52.0,47.3,29.56,West,270,0.0,0.0,84,0.00,,---,0.00,VWS V14.01,2013-08-16 04:17:00,
2013-08-16 00:22:00,51.8,47.1,29.56,West,270,0.0,0.0,84,0.00,,---,0.00,VWS V14.01,2013-08-16 04:22:00,
2013-08-16 00:27:00,51.6,47.0,29.56,West,270,1.1,1.1,84,0.00,,---,0.00,VWS V14.01,2013-08-16 04:27:00,
2013-08-16 00:33:00,51.6,47.3,29.56,West,270,1.1,1.1,85,0.00,,---,0.00,VWS V14.01,2013-08-16 04:33:00,
2013-08-16 00:38:00,51.4,47.1,29.56,West,270,1.1,1.1,85,0.00,,---,0.00,VWS V14.01,2013-08-16 04:38:00,
2013-08-16 00:45:00,51.6,47.3,29.56,SSW,202,1.3,2.0,85,0.00,,---,0.00,VWS V14.01,2013-08-16 04:45:00,
2013-08-16 00:51:00,51.4,47.1,29.56,SSW,202,0.9,0.9,85,0.00,,---,0.00,VWS V14.01,2013-08-16 04:51:00,
2013-08-16 00:57:00,51.3,46.9,29.56,SSW,202,0.0,0.0,85,0.00,,---,0.00,VWS V14.01,2013-08-16 04:57:00,
2013-08-16 01:02:00,51.1,46.7,29.56,West,270,0.0,0.0,85,0.00,,---,0.00,VWS V14.01,2013-08-16 05:02:00,
2013-08-16 01:08:00,50.9,46.6,29.56,SW,225,0.0,0.0,85,0.00,,---,0.00,VWS V14.01,2013-08-16 05:08:00,
2013-08-16 01:14:00,50.9,46.6,29.56,SW,225,0.0,0.0,85,0.00,,---,0.00,VWS V14.01,2013-08-16 05:14:00,
2013-08-16 01:20:00,50.5,46.2,29.56,SW,225,0.0,0.0,85,0.00,,---,0.00,VWS V14.01,2013-08-16 05:20:00,
2013-08-16 01:26:00,50.4,46.0,29.56,SW,225,0.0,0.0,85,0.00,,---,0.00,VWS V14.01,2013-08-16 05:26:00,
2013-08-16 01:32:00,50.4,46.0,29.56,SW,225,1.3,2.2,85,0.00,,---,0.00,VWS V14.01,2013-08-16 05:32:00,
2013-08-16 01:37:00,50.2,45.8,29.56,SW,225,0.0,0.0,85,0.00,,---,0.00,VWS V14.01,2013-08-16 05:37:00,
2013-08-16 01:43:00,50.0,45.7,29.56,SW,225,0.0,0.0,85,0.00,,---,0.00,VWS V14.01,2013-08-16 05:43:00,
2013-08-16 01:48:00,50.0,45.7,29.56,WSW,248,0.0,0.0,85,0.00,,---,0.00,VWS V14.01,2013-08-16 05:48:00,
2013-08-16 01:54:00,49.8,45.8,29.56,WSW,248,0.0,0.0,86,0.00,,---,0.00,VWS V14.01,2013-08-16 05:54:00,
2013-08-16 01:59:00,49.6,45.6,29.56,WSW,248,0.0,1.3,86,0.00,,---,0.00,VWS V14.01,2013-08-16 05:59:00,
2013-08-16 02:05:00,49.5,45.5,29.56,WSW,248,0.0,0.0,86,0.00,,---,0.00,VWS V14.01,2013-08-16 06:05:00,
2013-08-16 02:11:00,49.5,45.5,29.56,WSW,248,0.0,0.0,86,0.00,,---,0.00,VWS V14.01,2013-08-16 06:11:00,
2013-08-16 17:43:00,75.6,52.8,29.56,ENE,68,0.0,0.0,45,0.00,,---,0.00,VWS V14.01,2013-08-16 21:43:00,
2013-08-16 17:49:00,75.4,52.0,29.56,NNE,22,0.0,1.3,44,0.00,,---,0.00,VWS V14.01,2013-08-16 21:49:00,
2013-08-16 17:54:00,75.2,52.4,29.56,ENE,68,2.0,2.2,45,0.00,,---,0.00,VWS V14.01,2013-08-16 21:54:00,
2013-08-16 18:00:00,74.8,52.7,29.56,NNE,22,0.0,0.0,46,0.00,,---,0.00,VWS V14.01,2013-08-16 22:00:00,
2013-08-16 18:06:00,74.7,53.1,29.56,NNE,22,0.0,0.0,47,0.00,,---,0.00,VWS V14.01,2013-08-16 22:06:00,
2013-08-16 18:11:00,74.7,53.1,29.56,NNE,22,0.0,0.0,47,0.00,,---,0.00,VWS V14.01,2013-08-16 22:11:00,
2013-08-16 18:17:00,74.5,53.0,29.56,NNE,22,0.0,0.0,47,0.00,,---,0.00,VWS V14.01,2013-08-16 22:17:00,
2013-08-16 18:23:00,74.3,53.4,29.56,NNE,22,0.0,0.0,48,0.00,,---,0.00,VWS V14.01,2013-08-16 22:23:00,
2013-08-16 18:29:00,73.8,52.9,29.56,NNE,22,0.0,0.0,48,0.00,,---,0.00,VWS V14.01,2013-08-16 22:29:00,
2013-08-16 18:34:00,73.6,52.7,29.56,NNE,22,0.0,0.0,48,0.00,,---,0.00,VWS V14.01,2013-08-16 22:34:00,
2013-08-16 18:39:00,73.2,53.5,29.56,NNE,22,0.0,0.0,50,0.00,,---,0.00,VWS V14.01,2013-08-16 22:39:00,
2013-08-16 18:45:00,72.7,53.0,29.56,NNE,22,0.0,0.0,50,0.00,,---,0.00,VWS V14.01,2013-08-16 22:45:00,
2013-08-16 18:51:00,72.0,53.9,29.56,NNE,22,0.0,0.0,53,0.00,,---,0.00,VWS V14.01,2013-08-16 22:51:00,
2013-08-16 18:56:00,71.4,54.9,29.56,NNE,22,0.0,0.0,56,0.00,,---,0.00,VWS V14.01,2013-08-16 22:56:00,
2013-08-16 19:01:00,70.9,54.9,29.56,NNE,22,0.0,0.0,57,0.00,,---,0.00,VWS V14.01,2013-08-16 23:01:00,
2013-08-16 19:07:00,70.2,55.6,29.56,NNE,22,0.0,0.0,60,0.00,,---,0.00,VWS V14.01,2013-08-16 23:07:00,
2013-08-16 19:13:00,69.4,55.9,29.56,North,0,0.0,0.0,62,0.00,,---,0.00,VWS V14.01,2013-08-16 23:13:00,
2013-08-16 19:19:00,68.9,55.8,29.56,WNW,292,0.0,1.3,63,0.00,,---,0.00,VWS V14.01,2013-08-16 23:19:00,
2013-08-16 19:24:00,68.4,55.7,29.56,WNW,292,0.0,0.0,64,0.00,,---,0.00,VWS V14.01,2013-08-16 23:24:00,
2013-08-16 19:30:00,67.8,55.6,29.59,WNW,292,0.0,0.0,65,0.00,,---,0.00,VWS V14.01,2013-08-16 23:30:00,
2013-08-16 19:36:00,67.5,55.3,29.59,WNW,292,0.9,1.6,65,0.00,,---,0.00,VWS V14.01,2013-08-16 23:36:00,
2013-08-16 19:41:00,66.9,55.6,29.59,WNW,292,0.0,0.0,67,0.00,,---,0.00,VWS V14.01,2013-08-16 23:41:00,
2013-08-16 19:47:00,66.4,55.1,29.59,WNW,292,0.0,0.0,67,0.00,,---,0.00,VWS V14.01,2013-08-16 23:47:00,
2013-08-16 19:52:00,66.0,54.8,29.59,WNW,292,0.0,0.0,67,0.00,,---,0.00,VWS V14.01,2013-08-16 23:52:00,
2013-08-16 19:57:00,65.7,54.8,29.59,SW,225,0.0,0.0,68,0.00,,---,0.00,VWS V14.01,2013-08-16 23:57:00,
2013-08-16 20:03:00,65.3,54.9,29.59,SW,225,0.0,0.0,69,0.00,,---,0.00,VWS V14.01,2013-08-17 00:03:00,
2013-08-16 20:09:00,64.8,54.8,29.59,SW,225,0.0,0.0,70,0.00,,---,0.00,VWS V14.01,2013-08-17 00:09:00,
2013-08-16 20:14:00,64.4,54.4,29.62,SW,225,0.0,0.0,70,0.00,,---,0.00,VWS V14.01,2013-08-17 00:14:00,
2013-08-16 20:20:00,64.0,54.5,29.62,SW,225,0.0,0.0,71,0.00,,---,0.00,VWS V14.01,2013-08-17 00:20:00,
2013-08-16 20:26:00,63.7,54.1,29.62,SSW,202,0.0,0.0,71,0.00,,---,0.00,VWS V14.01,2013-08-17 00:26:00,
2013-08-16 20:31:00,63.3,54.2,29.62,SSW,202,0.0,0.0,72,0.00,,---,0.00,VWS V14.01,2013-08-17 00:31:00,
2013-08-16 20:37:00,63.0,53.8,29.62,SSW,202,0.0,0.0,72,0.00,,---,0.00,VWS V14.01,2013-08-17 00:37:00,
2013-08-16 20:42:00,62.8,54.0,29.62,SSW,202,0.0,0.0,73,0.00,,---,0.00,VWS V14.01,2013-08-17 00:42:00,
2013-08-16 20:48:00,62.6,54.2,29.62,SSW,202,0.0,0.0,74,0.00,,---,0.00,VWS V14.01,2013-08-17 00:48:00,
2013-08-16 20:54:00,62.4,54.4,29.62,SSW,202,0.0,0.0,75,0.00,,---,0.00,VWS V14.01,2013-08-17 00:54:00,
2013-08-16 20:59:00,62.2,54.6,29.62,SSW,202,0.0,0.0,76,0.00,,---,0.00,VWS V14.01,2013-08-17 00:59:00,
2013-08-16 21:05:00,62.2,54.6,29.62,SSW,202,0.0,0.0,76,0.00,,---,0.00,VWS V14.01,2013-08-17 01:05:00,
2013-08-16 21:11:00,62.2,55.0,29.62,SSW,202,0.0,0.0,77,0.00,,---,0.00,VWS V14.01,2013-08-17 01:11:00,
2013-08-16 21:16:00,62.4,55.1,29.65,SSW,202,0.0,0.0,77,0.00,,---,0.00,VWS V14.01,2013-08-17 01:16:00,
2013-08-16 21:22:00,62.4,55.1,29.65,West,270,0.0,0.0,77,0.00,,---,0.00,VWS V14.01,2013-08-17 01:22:00,
2013-08-16 21:27:00,62.4,55.5,29.62,West,270,0.0,0.0,78,0.00,,---,0.00,VWS V14.01,2013-08-17 01:27:00,
2013-08-16 21:33:00,62.2,55.3,29.62,West,270,0.0,0.0,78,0.00,,---,0.00,VWS V14.01,2013-08-17 01:33:00,
2013-08-16 21:39:00,62.2,55.3,29.62,WSW,248,0.0,0.0,78,0.00,,---,0.00,VWS V14.01,2013-08-17 01:39:00,
2013-08-16 21:44:00,62.1,54.8,29.62,WSW,248,0.0,0.0,77,0.00,,---,0.00,VWS V14.01,2013-08-17 01:44:00,
2013-08-16 21:49:00,61.7,54.8,29.62,WSW,248,0.0,0.0,78,0.00,,---,0.00,VWS V14.01,2013-08-17 01:49:00,
2013-08-16 21:54:00,61.5,54.6,29.62,WSW,248,0.0,0.0,78,0.00,,---,0.00,VWS V14.01,2013-08-17 01:54:00,
2013-08-16 21:59:00,61.3,54.4,29.65,ESE,112,0.0,0.0,78,0.00,,---,0.00,VWS V14.01,2013-08-17 01:59:00,
2013-08-16 22:04:00,61.3,54.4,29.65,ESE,112,0.0,0.0,78,0.00,,---,0.00,VWS V14.01,2013-08-17 02:04:00,
2013-08-16 22:10:00,61.2,54.6,29.65,SSW,202,0.0,0.0,79,0.00,,---,0.00,VWS V14.01,2013-08-17 02:10:00,
2013-08-16 22:15:00,61.0,54.1,29.65,West,270,0.0,0.0,78,0.00,,---,0.00,VWS V14.01,2013-08-17 02:15:00,
2013-08-16 22:20:00,60.8,54.3,29.65,West,270,0.0,0.0,79,0.00,,---,0.00,VWS V14.01,2013-08-17 02:20:00,
2013-08-16 22:25:00,60.6,54.1,29.65,West,270,0.0,0.0,79,0.00,,---,0.00,VWS V14.01,2013-08-17 02:25:00,
2013-08-16 22:31:00,60.3,53.7,29.65,West,270,0.0,0.0,79,0.00,,---,0.00,VWS V14.01,2013-08-17 02:31:00,
2013-08-16 22:37:00,60.1,53.9,29.65,West,270,0.0,0.0,80,0.00,,---,0.00,VWS V14.01,2013-08-17 02:37:00,
2013-08-16 22:42:00,59.9,53.7,29.65,West,270,0.0,0.0,80,0.00,,---,0.00,VWS V14.01,2013-08-17 02:42:00,
2013-08-16 22:48:00,59.5,53.4,29.65,WSW,248,0.0,0.0,80,0.00,,---,0.00,VWS V14.01,2013-08-17 02:48:00,
2013-08-16 22:54:00,59.4,53.2,29.65,WSW,248,0.0,0.0,80,0.00,,---,0.00,VWS V14.01,2013-08-17 02:54:00,
2013-08-16 22:59:00,59.2,53.0,29.65,WSW,248,0.0,0.0,80,0.00,,---,0.00,VWS V14.01,2013-08-17 02:59:00,
2013-08-16 23:05:00,59.0,53.2,29.65,SSW,202,0.0,0.0,81,0.00,,---,0.00,VWS V14.01,2013-08-17 03:05:00,
2013-08-16 23:11:00,58.8,53.0,29.65,WSW,248,0.0,0.0,81,0.00,,---,0.00,VWS V14.01,2013-08-17 03:11:00,
2013-08-16 23:16:00,58.8,53.0,29.65,SW,225,0.0,0.0,81,0.00,,---,0.00,VWS V14.01,2013-08-17 03:16:00,
2013-08-16 23:22:00,58.5,52.7,29.65,WSW,248,0.0,0.0,81,0.00,,---,0.00,VWS V14.01,2013-08-17 03:22:00,
2013-08-16 23:27:00,58.5,53.0,29.65,SSW,202,0.0,0.0,82,0.00,,---,0.00,VWS V14.01,2013-08-17 03:27:00,
2013-08-16 23:32:00,58.3,52.8,29.65,SSW,202,0.0,0.0,82,0.00,,---,0.00,VWS V14.01,2013-08-17 03:32:00,
2013-08-16 23:37:00,58.3,52.8,29.65,SW,225,0.0,0.0,82,0.00,,---,0.00,VWS V14.01,2013-08-17 03:37:00,
2013-08-16 23:43:00,58.1,52.6,29.65,SW,225,0.0,0.0,82,0.00,,---,0.00,VWS V14.01,2013-08-17 03:43:00,
2013-08-16 23:48:00,58.1,53.0,29.65,WSW,248,0.0,0.0,83,0.00,,---,0.00,VWS V14.01,2013-08-17 03:48:00,
2013-08-16 23:54:00,57.9,52.8,29.65,SW,225,0.0,0.0,83,0.00,,---,0.00,VWS V14.01,2013-08-17 03:54:00,